createdAt,value
2019-05-18T00:00:26.551Z,24.70
2019-05-18T00:02:54.567Z,24.70
2019-05-18T00:05:22.474Z,24.80
2019-05-18T00:07:50.415Z,24.80
2019-05-18T00:10:18.362Z,24.70
2019-05-18T00:12:46.330Z,24.70
2019-05-18T00:15:14.511Z,24.70
2019-05-18T00:17:42.470Z,24.70
2019-05-18T00:20:10.438Z,24.70
2019-05-18T00:22:38.622Z,24.70
2019-05-18T00:25:06.566Z,24.80
2019-05-18T00:27:34.456Z,24.70
2019-05-18T00:30:02.548Z,24.70
2019-05-18T00:32:30.487Z,24.70
2019-05-18T00:34:58.378Z,24.70
2019-05-18T00:37:26.338Z,24.70
2019-05-18T00:39:54.291Z,24.70
2019-05-18T00:42:22.277Z,24.70
2019-05-18T00:44:50.161Z,24.70
2019-05-18T00:47:17.976Z,24.70
2019-05-18T00:49:46.063Z,24.70
2019-05-18T00:52:14.045Z,24.70
2019-05-18T00:54:42.024Z,24.70
2019-05-18T00:57:10.026Z,24.70
2019-05-18T00:59:37.820Z,24.70
2019-05-18T01:02:05.918Z,24.60
2019-05-18T01:04:33.799Z,24.60
2019-05-18T01:07:01.785Z,24.60
2019-05-18T01:09:29.837Z,24.60
2019-05-18T01:11:57.746Z,24.60
2019-05-18T01:14:25.750Z,24.60
2019-05-18T01:16:53.837Z,24.60
2019-05-18T01:19:21.792Z,24.60
2019-05-18T01:21:49.769Z,24.60
2019-05-18T01:24:17.850Z,24.60
2019-05-18T01:26:45.714Z,24.60
2019-05-18T01:29:13.699Z,24.60
2019-05-18T01:31:41.631Z,24.60
2019-05-18T01:34:09.604Z,24.60
2019-05-18T01:36:37.491Z,24.60
2019-05-18T01:39:06.050Z,24.60
2019-05-18T01:41:34.167Z,24.60
2019-05-18T01:44:02.238Z,24.60
2019-05-18T01:46:30.279Z,24.60
2019-05-18T01:48:58.239Z,24.60
2019-05-18T01:51:26.215Z,24.60
2019-05-18T01:53:54.103Z,24.60
2019-05-18T01:56:22.154Z,24.60
2019-05-18T01:58:50.217Z,24.50
2019-05-18T02:01:18.190Z,24.60
2019-05-18T02:03:46.186Z,24.50
2019-05-18T02:06:14.136Z,24.50
2019-05-18T02:08:42.087Z,24.50
2019-05-18T02:11:09.975Z,24.50
2019-05-18T02:13:38.034Z,24.50
2019-05-18T02:16:05.948Z,24.50
2019-05-18T02:18:33.870Z,24.50
2019-05-18T02:21:02.031Z,24.50
2019-05-18T02:23:30.054Z,24.50
2019-05-18T02:25:57.975Z,24.50
2019-05-18T02:28:25.912Z,24.50
2019-05-18T02:30:53.848Z,24.50
2019-05-18T02:33:21.808Z,24.50
2019-05-18T02:35:49.633Z,24.50
2019-05-18T02:38:18.225Z,24.50
2019-05-18T02:40:46.208Z,24.50
2019-05-18T02:43:14.383Z,24.50
2019-05-18T02:45:42.351Z,24.50
2019-05-18T02:48:10.444Z,24.50
2019-05-18T02:50:38.293Z,24.50
2019-05-18T02:53:06.244Z,24.50
2019-05-18T02:55:34.370Z,24.50
2019-05-18T02:58:02.303Z,24.50
2019-05-18T03:00:30.167Z,24.50
2019-05-18T03:02:58.043Z,24.50
2019-05-18T03:05:26.084Z,24.50
2019-05-18T03:07:53.965Z,24.50
2019-05-18T03:10:22.958Z,24.50
2019-05-18T03:12:51.012Z,24.50
2019-05-18T03:15:18.930Z,24.50
2019-05-18T03:17:47.082Z,24.50
2019-05-18T03:20:14.930Z,24.50
2019-05-18T03:22:42.948Z,24.50
2019-05-18T03:25:11.104Z,24.50
2019-05-18T03:27:39.032Z,24.50
2019-05-18T03:30:07.155Z,24.50
2019-05-18T03:32:35.076Z,24.50
2019-05-18T03:35:03.768Z,24.50
2019-05-18T03:37:31.664Z,24.50
2019-05-18T03:39:59.600Z,24.50
2019-05-18T03:42:27.520Z,24.50
2019-05-18T03:44:55.540Z,24.50
2019-05-18T03:47:23.508Z,24.50
2019-05-18T03:49:51.364Z,24.50
2019-05-18T03:52:19.280Z,24.50
2019-05-18T03:54:47.300Z,24.50
2019-05-18T03:57:15.325Z,24.50
2019-05-18T03:59:43.187Z,24.50
2019-05-18T04:02:11.119Z,24.50
2019-05-18T04:04:39.005Z,24.50
2019-05-18T04:07:08.170Z,24.50
2019-05-18T04:09:36.160Z,24.50
2019-05-18T04:12:04.114Z,24.50
2019-05-18T04:14:32.092Z,24.50
2019-05-18T04:17:00.055Z,24.50
2019-05-18T04:19:44.678Z,24.50
2019-05-18T04:21:57.533Z,24.50
2019-05-18T04:24:25.483Z,24.50
2019-05-18T04:26:53.452Z,24.50
2019-05-18T04:29:21.263Z,24.50
2019-05-18T04:31:49.103Z,24.50
2019-05-18T04:34:17.045Z,24.50
2019-05-18T04:36:44.886Z,24.50
2019-05-18T04:39:12.662Z,24.50
2019-05-18T04:41:40.647Z,24.50
2019-05-18T04:44:08.731Z,24.50
2019-05-18T04:46:36.529Z,24.50
2019-05-18T04:49:04.362Z,24.50
2019-05-18T04:51:32.207Z,24.50
2019-05-18T04:54:00.022Z,24.50
2019-05-18T04:56:27.964Z,24.50
2019-05-18T04:58:55.829Z,24.50
2019-05-18T05:01:23.909Z,24.50
2019-05-18T05:03:51.650Z,24.50
2019-05-18T05:06:19.938Z,24.50
2019-05-18T05:08:48.097Z,24.50
2019-05-18T05:11:15.826Z,24.60
2019-05-18T05:13:43.837Z,24.50
2019-05-18T05:16:12.534Z,24.50
2019-05-18T05:18:40.485Z,24.60
2019-05-18T05:21:08.352Z,24.50
2019-05-18T05:23:36.224Z,24.60
2019-05-18T05:26:04.194Z,24.50
2019-05-18T05:28:32.046Z,24.50
2019-05-18T05:31:00.143Z,24.50
2019-05-18T05:33:28.134Z,24.60
2019-05-18T05:35:57.078Z,24.60
2019-05-18T05:38:25.163Z,24.60
2019-05-18T05:40:53.150Z,24.50
2019-05-18T05:43:21.356Z,24.50
2019-05-18T05:45:49.326Z,24.60
2019-05-18T05:48:17.245Z,24.60
2019-05-18T05:50:45.331Z,24.50
2019-05-18T05:53:13.222Z,24.60
2019-05-18T05:55:41.163Z,24.60
2019-05-18T05:58:09.237Z,24.60
2019-05-18T06:00:37.226Z,24.60
2019-05-18T06:03:05.054Z,24.60
2019-05-18T06:05:33.035Z,24.60
2019-05-18T06:08:00.851Z,24.60
2019-05-18T06:10:28.782Z,24.60
2019-05-18T06:12:56.730Z,24.60
2019-05-18T06:15:24.608Z,24.60
2019-05-18T06:17:52.559Z,24.60
2019-05-18T06:20:20.563Z,24.60
2019-05-18T06:22:48.718Z,24.60
2019-05-18T06:25:16.596Z,24.60
2019-05-18T06:27:44.542Z,24.60
2019-05-18T06:30:12.397Z,24.60
2019-05-18T06:32:40.337Z,24.60
2019-05-18T06:35:08.247Z,24.60
2019-05-18T06:37:36.222Z,24.60
2019-05-18T06:40:05.928Z,24.60
2019-05-18T06:42:34.099Z,24.60
2019-05-18T06:45:01.952Z,24.60
2019-05-18T06:47:30.461Z,24.60
2019-05-18T06:49:58.322Z,24.60
2019-05-18T06:52:26.281Z,24.60
2019-05-18T06:54:54.250Z,24.60
2019-05-18T06:57:23.036Z,24.60
2019-05-18T06:59:51.211Z,24.60
2019-05-18T07:02:19.173Z,24.60
2019-05-18T07:04:48.324Z,24.60
2019-05-18T07:07:16.354Z,24.60
2019-05-18T07:09:44.180Z,24.60
2019-05-18T07:12:12.015Z,24.60
2019-05-18T07:14:40.045Z,24.60
2019-05-18T07:17:08.007Z,24.60
2019-05-18T07:19:36.077Z,24.60
2019-05-18T07:22:03.960Z,24.60
2019-05-18T07:24:31.935Z,24.60
2019-05-18T07:27:00.307Z,24.60
2019-05-18T07:29:28.273Z,24.60
2019-05-18T07:31:56.264Z,24.60
2019-05-18T07:34:26.570Z,24.60
2019-05-18T07:36:53.908Z,24.60
2019-05-18T07:39:21.802Z,24.60
2019-05-18T07:41:49.693Z,24.60
2019-05-18T07:44:17.670Z,24.60
2019-05-18T07:46:45.679Z,24.60
2019-05-18T07:49:13.646Z,24.60
2019-05-18T07:51:41.622Z,24.50
2019-05-18T07:54:09.508Z,24.50
2019-05-18T07:56:38.619Z,24.50
2019-05-18T07:59:06.475Z,24.50
2019-05-18T08:01:34.435Z,24.50
2019-05-18T08:04:02.307Z,24.50
2019-05-18T08:06:30.465Z,24.50
2019-05-18T08:08:58.349Z,24.50
2019-05-18T08:11:26.506Z,24.50
2019-05-18T08:13:54.411Z,24.50
2019-05-18T08:16:22.218Z,24.40
2019-05-18T08:18:50.203Z,24.50
2019-05-18T08:21:18.105Z,24.50
2019-05-18T08:23:46.049Z,24.40
2019-05-18T08:26:14.095Z,24.50
2019-05-18T08:28:42.007Z,24.40
2019-05-18T08:31:10.047Z,24.50
2019-05-18T08:33:38.016Z,24.50
2019-05-18T08:36:05.923Z,24.50
2019-05-18T08:38:33.762Z,24.60
2019-05-18T08:41:01.834Z,24.50
2019-05-18T08:43:29.836Z,24.60
2019-05-18T08:45:57.751Z,24.60
2019-05-18T08:48:25.632Z,24.60
2019-05-18T08:50:53.503Z,24.60
2019-05-18T08:53:22.597Z,24.70
2019-05-18T08:55:50.684Z,24.80
2019-05-18T08:58:18.772Z,24.80
2019-05-18T09:00:46.900Z,25.00
2019-05-18T09:03:14.970Z,25.00
2019-05-18T09:05:42.927Z,25.00
2019-05-18T09:08:10.841Z,24.90
2019-05-18T09:10:38.801Z,24.80
2019-05-18T09:13:06.678Z,24.80
2019-05-18T09:15:34.716Z,24.80
2019-05-18T09:18:04.907Z,24.70
2019-05-18T09:20:32.233Z,24.70
2019-05-18T09:23:00.242Z,24.80
2019-05-18T09:25:28.315Z,24.80
2019-05-18T09:27:56.283Z,24.80
2019-05-18T09:30:24.179Z,24.80
2019-05-18T09:32:51.958Z,24.80
2019-05-18T09:35:19.775Z,24.70
2019-05-18T09:37:47.495Z,24.70
2019-05-18T09:40:15.629Z,24.70
2019-05-18T09:42:43.431Z,24.70
2019-05-18T09:45:11.384Z,24.70
2019-05-18T09:47:39.163Z,24.70
2019-05-18T09:50:07.077Z,24.70
2019-05-18T09:52:44.811Z,24.80
2019-05-18T09:55:06.002Z,24.70
2019-05-18T09:57:33.799Z,24.80
2019-05-18T10:00:01.837Z,24.80
2019-05-18T10:02:29.671Z,24.80
2019-05-18T10:04:57.557Z,24.80
2019-05-18T10:07:25.527Z,24.80
2019-05-18T10:10:11.800Z,24.80
2019-05-18T10:12:39.394Z,24.80
2019-05-18T10:15:07.663Z,24.80
2019-05-18T10:17:36.978Z,24.70
2019-05-18T10:20:08.022Z,24.70
2019-05-18T10:22:36.087Z,24.70
2019-05-18T10:25:06.055Z,24.70
2019-05-18T10:27:33.969Z,24.80
2019-05-18T10:30:02.166Z,24.80
2019-05-18T10:32:30.210Z,24.80
2019-05-18T10:34:58.067Z,24.80
2019-05-18T10:37:25.954Z,24.80
2019-05-18T10:39:53.904Z,24.80
2019-05-18T10:42:21.716Z,24.80
2019-05-18T10:44:49.652Z,24.80
2019-05-18T10:47:17.622Z,24.80
2019-05-18T10:49:45.675Z,24.80
2019-05-18T10:52:13.754Z,24.80
2019-05-18T10:54:41.715Z,24.80
2019-05-18T10:57:09.787Z,24.80
2019-05-18T10:59:37.671Z,24.80
2019-05-18T11:02:05.625Z,24.90
2019-05-18T11:04:33.536Z,24.80
2019-05-18T11:07:01.381Z,24.90
2019-05-18T11:09:29.434Z,24.90
2019-05-18T11:11:57.419Z,24.90
2019-05-18T11:14:25.367Z,24.90
2019-05-18T11:16:53.230Z,24.90
2019-05-18T11:19:21.206Z,24.90
2019-05-18T11:21:49.000Z,24.90
2019-05-18T11:24:17.043Z,24.90
2019-05-18T11:26:45.074Z,24.90
2019-05-18T11:29:13.085Z,24.90
2019-05-18T11:31:41.053Z,24.90
2019-05-18T11:34:09.124Z,24.90
2019-05-18T11:36:37.386Z,24.90
2019-05-18T11:39:05.980Z,24.90
2019-05-18T11:41:33.863Z,24.90
2019-05-18T11:44:01.689Z,24.90
2019-05-18T11:46:29.670Z,24.90
2019-05-18T11:49:16.728Z,24.90
2019-05-18T11:51:44.963Z,24.90
2019-05-18T11:54:13.046Z,24.90
2019-05-18T11:56:40.851Z,25.00
2019-05-18T11:59:08.981Z,24.90
2019-05-18T12:01:36.838Z,24.90
2019-05-18T12:04:04.919Z,25.00
2019-05-18T12:06:32.786Z,24.90
2019-05-18T12:09:00.947Z,25.00
2019-05-18T12:11:28.885Z,25.00
2019-05-18T12:13:56.799Z,25.00
2019-05-18T12:16:24.653Z,25.00
2019-05-18T12:18:52.486Z,25.00
2019-05-18T12:21:20.802Z,25.00
2019-05-18T12:23:48.672Z,25.00
2019-05-18T12:26:16.740Z,25.00
2019-05-18T12:28:44.613Z,25.00
2019-05-18T12:31:12.433Z,25.00
2019-05-18T12:33:41.558Z,25.00
2019-05-18T12:36:09.439Z,25.00
2019-05-18T12:38:37.395Z,25.00
2019-05-18T12:41:05.681Z,25.00
2019-05-18T12:43:33.635Z,25.00
2019-05-18T12:46:01.503Z,25.10
2019-05-18T12:48:29.485Z,25.10
2019-05-18T12:50:57.443Z,25.10
2019-05-18T12:53:25.399Z,25.20
2019-05-18T12:55:53.215Z,25.20
2019-05-18T12:58:21.178Z,25.20
2019-05-18T13:00:49.225Z,25.30
2019-05-18T13:03:17.296Z,25.30
2019-05-18T13:05:45.187Z,25.30
2019-05-18T13:08:13.232Z,25.30
2019-05-18T13:10:41.209Z,25.30
2019-05-18T13:13:09.189Z,25.30
2019-05-18T13:15:37.023Z,25.30
2019-05-18T13:18:04.895Z,25.70
2019-05-18T13:20:32.739Z,25.70
2019-05-18T13:23:00.633Z,25.60
2019-05-18T13:25:28.551Z,25.60
2019-05-18T13:27:58.150Z,25.50
2019-05-18T13:30:26.679Z,25.50
2019-05-18T13:32:54.547Z,25.40
2019-05-18T13:35:22.392Z,25.40
2019-05-18T13:37:50.388Z,25.40
2019-05-18T13:40:19.783Z,25.50
2019-05-18T13:42:47.755Z,25.50
2019-05-18T13:45:15.602Z,25.40
2019-05-18T13:47:43.607Z,25.40
2019-05-18T13:50:11.580Z,25.40
2019-05-18T13:52:39.407Z,25.50
2019-05-18T13:55:07.403Z,25.50
2019-05-18T13:57:35.515Z,25.50
2019-05-18T14:00:04.383Z,25.50
2019-05-18T14:02:32.187Z,25.50
2019-05-18T14:05:01.315Z,25.50
2019-05-18T14:07:29.203Z,25.50
2019-05-18T14:09:57.469Z,25.50
2019-05-18T14:12:25.428Z,25.50
2019-05-18T14:14:53.516Z,25.50
2019-05-18T14:17:21.582Z,25.50
2019-05-18T14:19:49.651Z,25.50
2019-05-18T14:22:17.610Z,25.50
2019-05-18T14:24:45.488Z,25.50
2019-05-18T14:27:13.456Z,25.50
2019-05-18T14:29:41.414Z,25.50
2019-05-18T14:32:10.971Z,25.60
2019-05-18T14:34:38.889Z,25.60
2019-05-18T14:37:06.866Z,25.60
2019-05-18T14:39:34.735Z,25.70
2019-05-18T14:42:02.805Z,25.70
2019-05-18T14:44:31.287Z,25.70
2019-05-18T14:46:59.358Z,25.70
2019-05-18T14:49:27.637Z,25.70
2019-05-18T14:51:55.432Z,25.70
2019-05-18T14:54:25.531Z,25.70
2019-05-18T14:56:53.725Z,25.70
2019-05-18T14:59:21.712Z,25.70
2019-05-18T15:01:49.740Z,25.70
2019-05-18T15:04:17.903Z,25.70
2019-05-18T15:06:45.780Z,25.70
2019-05-18T15:09:13.726Z,25.70
2019-05-18T15:11:41.563Z,25.70
2019-05-18T15:14:09.479Z,25.70
2019-05-18T15:16:37.652Z,25.70
2019-05-18T15:19:05.618Z,25.70
2019-05-18T15:21:33.585Z,25.70
2019-05-18T15:24:01.770Z,25.70
2019-05-18T15:26:29.655Z,25.70
2019-05-18T15:28:57.479Z,25.70
2019-05-18T15:31:25.449Z,25.70
2019-05-18T15:33:53.527Z,25.70
2019-05-18T15:36:21.804Z,25.70
2019-05-18T15:38:50.138Z,25.70
2019-05-18T15:41:18.355Z,25.70
2019-05-18T15:43:46.530Z,25.70
2019-05-18T15:46:15.489Z,25.70
2019-05-18T15:48:43.580Z,25.70
2019-05-18T15:51:11.546Z,25.70
2019-05-18T15:53:39.540Z,25.70
2019-05-18T15:56:07.499Z,25.70
2019-05-18T15:58:35.390Z,25.70
2019-05-18T16:01:03.348Z,25.70
2019-05-18T16:03:31.316Z,25.70
2019-05-18T16:05:59.366Z,25.70
2019-05-18T16:08:27.327Z,25.70
2019-05-18T16:10:57.220Z,25.70
2019-05-18T16:13:24.804Z,25.70
2019-05-18T16:15:52.793Z,25.70
2019-05-18T16:18:20.863Z,25.70
2019-05-18T16:20:48.647Z,25.70
2019-05-18T16:23:16.590Z,25.70
2019-05-18T16:25:44.696Z,25.70
2019-05-18T16:28:12.555Z,25.70
2019-05-18T16:30:40.600Z,25.70
2019-05-18T16:33:08.698Z,25.70
2019-05-18T16:35:36.726Z,25.70
2019-05-18T16:38:04.595Z,25.70
2019-05-18T16:40:32.570Z,25.70
2019-05-18T16:43:00.535Z,25.70
2019-05-18T16:45:28.716Z,25.70
2019-05-18T16:47:56.595Z,25.70
2019-05-18T16:50:24.470Z,25.70
2019-05-18T16:52:52.480Z,25.70
2019-05-18T16:55:21.001Z,25.70
2019-05-18T16:57:49.002Z,25.70
2019-05-18T17:00:18.836Z,25.60
2019-05-18T17:02:46.843Z,25.60
2019-05-18T17:05:15.035Z,25.60
2019-05-18T17:07:42.990Z,25.60
2019-05-18T17:10:10.956Z,25.60
2019-05-18T17:12:38.926Z,25.60
2019-05-18T17:15:07.678Z,25.50
2019-05-18T17:17:36.137Z,25.50
2019-05-18T17:20:04.578Z,25.50
2019-05-18T17:22:34.322Z,25.50
2019-05-18T17:25:06.315Z,25.50
2019-05-18T17:27:34.310Z,25.50
2019-05-18T17:30:02.427Z,25.50
2019-05-18T17:32:30.252Z,25.40
2019-05-18T17:34:58.229Z,25.40
2019-05-18T17:37:26.183Z,25.40
2019-05-18T17:39:54.666Z,25.50
2019-05-18T17:42:22.532Z,25.50
2019-05-18T17:44:50.521Z,25.50
2019-05-18T17:47:37.662Z,25.50
2019-05-18T17:50:07.377Z,25.40
2019-05-18T17:52:35.182Z,25.40
2019-05-18T17:55:03.651Z,25.40
2019-05-18T17:57:31.656Z,25.40
2019-05-18T17:59:59.622Z,25.40
2019-05-18T18:02:29.575Z,25.30
2019-05-18T18:04:58.227Z,25.40
2019-05-18T18:07:26.210Z,25.40
2019-05-18T18:09:54.038Z,25.30
2019-05-18T18:12:22.137Z,25.30
2019-05-18T18:14:49.931Z,25.30
2019-05-18T18:17:17.970Z,25.30
2019-05-18T18:19:46.029Z,25.20
2019-05-18T18:22:13.999Z,25.20
2019-05-18T18:24:42.078Z,25.20
2019-05-18T18:27:24.057Z,25.20
2019-05-18T18:29:39.664Z,25.20
2019-05-18T18:32:07.470Z,25.20
2019-05-18T18:34:35.310Z,25.20
2019-05-18T18:37:03.351Z,25.20
2019-05-18T18:39:31.237Z,25.20
2019-05-18T18:41:59.807Z,25.20
2019-05-18T18:44:28.387Z,25.20
2019-05-18T18:46:56.667Z,25.20
2019-05-18T18:49:24.922Z,25.20
2019-05-18T18:51:53.445Z,25.10
2019-05-18T18:54:21.288Z,25.10
2019-05-18T18:56:49.355Z,25.10
2019-05-18T18:59:17.429Z,25.10
2019-05-18T19:01:45.304Z,25.10
2019-05-18T19:04:13.249Z,25.10
2019-05-18T19:06:41.242Z,25.10
2019-05-18T19:09:09.108Z,25.00
2019-05-18T19:11:37.168Z,25.10
2019-05-18T19:14:05.042Z,25.10
2019-05-18T19:16:33.207Z,25.10
2019-05-18T19:19:01.063Z,25.10
2019-05-18T19:21:28.914Z,25.10
2019-05-18T19:23:57.011Z,25.10
2019-05-18T19:26:25.092Z,25.10
2019-05-18T19:28:53.038Z,25.00
2019-05-18T19:31:21.023Z,25.10
2019-05-18T19:33:48.814Z,25.10
2019-05-18T19:36:16.751Z,25.00
2019-05-18T19:38:44.720Z,25.00
2019-05-18T19:41:12.791Z,25.00
2019-05-18T19:43:40.662Z,25.00
2019-05-18T19:46:08.627Z,25.00
2019-05-18T19:48:36.419Z,25.00
2019-05-18T19:51:04.263Z,25.00
2019-05-18T19:53:32.220Z,25.00
2019-05-18T19:56:00.194Z,25.00
2019-05-18T19:58:28.167Z,25.00
2019-05-18T20:00:56.123Z,25.00
2019-05-18T20:03:24.670Z,25.00
2019-05-18T20:05:52.599Z,25.00
2019-05-18T20:08:20.435Z,25.00
2019-05-18T20:10:48.519Z,25.00
2019-05-18T20:13:16.487Z,25.00
2019-05-18T20:15:44.498Z,25.00
2019-05-18T20:18:12.530Z,25.00
2019-05-18T20:20:40.411Z,25.00
2019-05-18T20:23:08.766Z,25.00
2019-05-18T20:25:36.936Z,24.90
2019-05-18T20:28:04.836Z,24.80
2019-05-18T20:30:32.680Z,24.90
2019-05-18T20:33:01.799Z,24.90
2019-05-18T20:35:29.743Z,24.90
2019-05-18T20:37:57.635Z,24.90
2019-05-18T20:40:25.567Z,24.90
2019-05-18T20:42:53.535Z,24.90
2019-05-18T20:45:21.407Z,24.90
2019-05-18T20:47:49.214Z,24.90
2019-05-18T20:50:17.018Z,24.90
2019-05-18T20:52:44.888Z,24.90
2019-05-18T20:55:12.873Z,24.90
2019-05-18T20:57:40.867Z,24.90
2019-05-18T21:00:09.075Z,24.80
2019-05-18T21:02:37.082Z,24.90
2019-05-18T21:05:05.522Z,24.80
2019-05-18T21:07:33.363Z,24.80
2019-05-18T21:10:01.192Z,24.80
2019-05-18T21:12:28.991Z,24.80
2019-05-18T21:14:57.040Z,24.80
2019-05-18T21:17:25.217Z,24.80
2019-05-18T21:19:53.119Z,24.80
2019-05-18T21:22:21.034Z,24.80
2019-05-18T21:24:49.111Z,24.80
2019-05-18T21:27:16.999Z,24.80
2019-05-18T21:29:44.940Z,24.70
2019-05-18T21:32:13.022Z,24.70
2019-05-18T21:34:41.006Z,24.70
2019-05-18T21:37:08.855Z,24.80
2019-05-18T21:39:36.933Z,24.80
2019-05-18T21:42:05.008Z,24.70
2019-05-18T21:44:33.024Z,24.70
2019-05-18T21:47:00.929Z,24.70
2019-05-18T21:49:28.999Z,24.70
2019-05-18T21:51:56.978Z,24.70
2019-05-18T21:54:24.935Z,24.60
2019-05-18T21:56:52.921Z,24.60
2019-05-18T21:59:20.759Z,24.60
2019-05-18T22:01:48.767Z,24.60
2019-05-18T22:04:16.728Z,24.50
2019-05-18T22:06:44.581Z,24.50
2019-05-18T22:09:12.545Z,24.50
2019-05-18T22:11:40.410Z,24.50
2019-05-18T22:14:08.291Z,24.60
2019-05-18T22:16:36.143Z,24.60
2019-05-18T22:19:04.111Z,24.50
2019-05-18T22:21:31.958Z,24.50
2019-05-18T22:23:59.884Z,24.60
2019-05-18T22:26:27.741Z,24.50
2019-05-18T22:28:55.584Z,24.50
2019-05-18T22:31:23.413Z,24.50
2019-05-18T22:33:51.113Z,24.40
2019-05-18T22:36:18.784Z,24.40
2019-05-18T22:38:46.624Z,24.40
2019-05-18T22:41:14.272Z,24.40
2019-05-18T22:43:42.079Z,24.40
2019-05-18T22:46:09.813Z,24.30
2019-05-18T22:48:41.460Z,24.30
2019-05-18T22:51:07.264Z,24.40
2019-05-18T22:53:35.163Z,24.30
2019-05-18T22:56:02.868Z,24.30
2019-05-18T22:58:30.789Z,24.30
2019-05-18T23:00:58.514Z,24.40
2019-05-18T23:03:26.419Z,24.50
2019-05-18T23:05:54.387Z,24.50
2019-05-18T23:08:22.359Z,24.40
2019-05-18T23:10:50.324Z,24.50
2019-05-18T23:13:18.308Z,24.50
2019-05-18T23:15:46.163Z,24.40
2019-05-18T23:18:13.987Z,24.40
2019-05-18T23:20:41.835Z,24.40
2019-05-18T23:23:09.875Z,24.40
2019-05-18T23:25:37.950Z,24.50
2019-05-18T23:28:05.832Z,24.50
2019-05-18T23:30:33.884Z,24.40
2019-05-18T23:33:01.880Z,24.40
2019-05-18T23:35:29.927Z,24.40
2019-05-18T23:37:57.782Z,24.40
2019-05-18T23:40:25.861Z,24.40
2019-05-18T23:42:53.658Z,24.40
2019-05-18T23:45:21.587Z,24.40
2019-05-18T23:47:49.562Z,24.40
2019-05-18T23:50:17.528Z,24.30
2019-05-18T23:52:45.319Z,24.30
2019-05-18T23:55:13.489Z,24.30
2019-05-18T23:57:41.334Z,24.20
